createdAt,value
2018-09-26T00:01:13.435Z,102667.28
2018-09-26T00:03:46.216Z,102665.52
2018-09-26T00:06:15.442Z,102645.48
2018-09-26T00:08:44.346Z,102650.66
2018-09-26T00:11:13.263Z,102674.93
2018-09-26T00:13:42.263Z,102655.94
2018-09-26T00:16:11.420Z,102679.64
2018-09-26T00:18:40.388Z,102664.17
2018-09-26T00:21:09.319Z,102686.12
2018-09-26T00:23:38.228Z,102665.14
2018-09-26T00:26:07.227Z,102683.36
2018-09-26T00:28:36.115Z,102679.34
2018-09-26T00:31:05.043Z,102683.33
2018-09-26T00:33:33.998Z,102703.86
2018-09-26T00:36:02.916Z,102695.14
2018-09-26T00:38:38.256Z,102707.36
2018-09-26T00:41:07.409Z,102700.44
2018-09-26T00:43:36.294Z,102702.55
2018-09-26T00:46:05.246Z,102709.59
2018-09-26T00:48:34.172Z,102703.00
2018-09-26T00:51:03.096Z,102694.03
2018-09-26T00:53:32.079Z,102705.51
2018-09-26T00:56:01.017Z,102707.66
2018-09-26T00:58:29.987Z,102702.61
2018-09-26T01:00:58.903Z,102702.67
2018-09-26T01:03:27.730Z,102716.05
2018-09-26T01:05:56.632Z,102710.25
2018-09-26T01:08:25.581Z,102708.54
2018-09-26T01:10:54.587Z,102712.81
2018-09-26T01:13:23.481Z,102710.36
2018-09-26T01:15:52.592Z,102706.17
2018-09-26T01:18:21.527Z,102703.66
2018-09-26T01:20:51.421Z,102700.80
2018-09-26T01:23:20.262Z,102701.70
2018-09-26T01:25:49.163Z,102712.67
2018-09-26T01:28:17.990Z,102717.21
2018-09-26T01:30:46.879Z,102711.13
2018-09-26T01:33:15.775Z,102723.66
2018-09-26T01:35:44.784Z,102709.64
2018-09-26T01:38:13.674Z,102691.11
2018-09-26T01:40:42.606Z,102715.81
2018-09-26T01:43:11.492Z,102711.98
2018-09-26T01:45:40.388Z,102697.39
2018-09-26T01:48:09.260Z,102709.52
2018-09-26T01:50:38.163Z,102709.54
2018-09-26T01:53:07.246Z,102706.61
2018-09-26T01:55:36.168Z,102698.64
2018-09-26T01:58:06.448Z,102708.53
2018-09-26T02:00:35.322Z,102710.31
2018-09-26T02:03:04.299Z,102709.05
2018-09-26T02:05:33.268Z,102704.48
2018-09-26T02:08:02.122Z,102707.48
2018-09-26T02:10:30.993Z,102708.37
2018-09-26T02:12:59.991Z,102705.75
2018-09-26T02:15:28.938Z,102710.08
2018-09-26T02:17:57.863Z,102711.81
2018-09-26T02:20:26.947Z,102712.34
2018-09-26T02:22:55.815Z,102715.85
2018-09-26T02:25:24.699Z,102713.28
2018-09-26T02:27:53.703Z,102714.55
2018-09-26T02:30:22.559Z,102715.55
2018-09-26T02:32:51.495Z,102719.78
2018-09-26T02:35:20.384Z,102718.98
2018-09-26T02:37:49.260Z,102716.16
2018-09-26T02:40:18.122Z,102729.59
2018-09-26T02:42:48.365Z,102726.25
2018-09-26T02:45:17.199Z,102728.80
2018-09-26T02:47:46.114Z,102728.37
2018-09-26T02:50:15.976Z,102732.97
2018-09-26T02:52:44.822Z,102730.69
2018-09-26T02:55:13.714Z,102727.19
2018-09-26T02:57:42.608Z,102732.80
2018-09-26T03:00:11.470Z,102724.58
2018-09-26T03:02:40.283Z,102723.80
2018-09-26T03:05:09.139Z,102725.05
2018-09-26T03:07:37.996Z,102718.70
2018-09-26T03:10:08.259Z,102712.33
2018-09-26T03:12:37.079Z,102724.47
2018-09-26T03:15:06.122Z,102721.47
2018-09-26T03:17:35.089Z,102724.07
2018-09-26T03:20:04.017Z,102718.03
2018-09-26T03:22:32.846Z,102721.31
2018-09-26T03:25:01.757Z,102716.64
2018-09-26T03:27:30.628Z,102723.11
2018-09-26T03:29:59.538Z,102736.40
2018-09-26T03:32:29.691Z,102726.89
2018-09-26T03:34:58.544Z,102728.18
2018-09-26T03:37:27.439Z,102732.27
2018-09-26T03:39:56.345Z,102719.24
2018-09-26T03:42:25.267Z,102737.18
2018-09-26T03:44:54.104Z,102729.80
2018-09-26T03:47:23.089Z,102734.42
2018-09-26T03:49:51.967Z,102748.91
2018-09-26T03:52:20.813Z,102753.14
2018-09-26T03:54:49.744Z,102744.69
2018-09-26T03:57:18.615Z,102758.09
2018-09-26T03:59:47.538Z,102754.00
2018-09-26T04:02:16.558Z,102748.34
2018-09-26T04:04:45.487Z,102755.66
2018-09-26T04:07:14.365Z,102749.16
2018-09-26T04:09:43.278Z,102756.19
2018-09-26T04:12:12.160Z,102761.25
2018-09-26T04:14:41.029Z,102751.01
2018-09-26T04:17:10.008Z,102762.47
2018-09-26T04:19:38.857Z,102759.55
2018-09-26T04:22:07.739Z,102767.30
2018-09-26T04:24:36.692Z,102764.41
2018-09-26T04:27:05.703Z,102755.73
2018-09-26T04:29:34.547Z,102743.80
2018-09-26T04:32:04.700Z,102767.16
2018-09-26T04:34:33.579Z,102768.87
2018-09-26T04:37:02.461Z,102777.16
2018-09-26T04:39:32.623Z,102777.06
2018-09-26T04:42:01.510Z,102780.80
2018-09-26T04:44:30.459Z,102784.67
2018-09-26T04:46:59.470Z,102785.03
2018-09-26T04:49:28.318Z,102794.08
2018-09-26T04:51:57.175Z,102783.30
2018-09-26T04:54:27.736Z,102790.51
2018-09-26T04:56:56.602Z,102792.24
2018-09-26T04:59:25.500Z,102776.80
2018-09-26T05:01:54.437Z,102785.61
2018-09-26T05:04:23.351Z,102780.69
2018-09-26T05:06:52.314Z,102784.80
2018-09-26T05:09:21.212Z,102783.46
2018-09-26T05:11:50.170Z,102794.00
2018-09-26T05:14:19.023Z,102788.61
2018-09-26T05:16:47.922Z,102778.92
2018-09-26T05:19:16.859Z,102773.27
2018-09-26T05:21:45.779Z,102781.63
2018-09-26T05:24:14.710Z,102786.20
2018-09-26T05:26:43.612Z,102780.90
2018-09-26T05:29:12.470Z,102780.52
2018-09-26T05:31:41.422Z,102769.04
2018-09-26T05:34:10.310Z,102783.96
2018-09-26T05:36:39.211Z,102758.48
2018-09-26T05:39:10.920Z,102762.83
2018-09-26T05:41:39.811Z,102777.97
2018-09-26T05:44:08.883Z,102801.38
2018-09-26T05:46:37.782Z,102808.38
2018-09-26T05:49:06.767Z,102772.36
2018-09-26T05:51:35.578Z,102790.32
2018-09-26T05:54:04.524Z,102754.64
2018-09-26T05:56:33.413Z,102808.56
2018-09-26T05:59:04.642Z,102817.09
2018-09-26T06:01:33.539Z,102813.82
2018-09-26T06:04:02.626Z,102831.28
2018-09-26T06:06:31.477Z,102857.44
2018-09-26T06:09:00.437Z,102831.38
2018-09-26T06:11:29.430Z,102806.50
2018-09-26T06:13:58.435Z,102810.80
2018-09-26T06:16:27.392Z,102788.30
2018-09-26T06:18:56.311Z,102828.18
2018-09-26T06:21:25.172Z,102836.08
2018-09-26T06:23:55.311Z,102817.71
2018-09-26T06:26:24.236Z,102737.48
2018-09-26T06:28:53.102Z,102821.92
2018-09-26T06:31:22.063Z,102812.31
2018-09-26T06:33:50.940Z,102827.88
2018-09-26T06:36:19.846Z,102869.87
2018-09-26T06:38:48.730Z,102782.86
2018-09-26T06:41:17.663Z,102832.91
2018-09-26T06:43:46.529Z,102793.58
2018-09-26T06:46:15.487Z,102834.70
2018-09-26T06:48:44.494Z,102826.14
2018-09-26T06:51:13.370Z,102815.77
2018-09-26T06:53:42.340Z,102830.80
2018-09-26T06:56:11.250Z,102819.45
2018-09-26T06:58:40.203Z,102854.48
2018-09-26T07:01:09.139Z,102849.36
2018-09-26T07:03:38.039Z,102848.61
2018-09-26T07:06:06.891Z,102810.97
2018-09-26T07:08:37.230Z,102825.36
2018-09-26T07:11:06.196Z,102840.91
2018-09-26T07:13:35.064Z,102845.66
2018-09-26T07:16:03.954Z,102852.61
2018-09-26T07:18:32.907Z,102844.30
2018-09-26T07:21:01.793Z,102860.59
2018-09-26T07:23:31.950Z,102863.28
2018-09-26T07:26:00.872Z,102867.91
2018-09-26T07:28:32.202Z,102879.84
2018-09-26T07:31:01.062Z,102861.70
2018-09-26T07:33:30.011Z,102829.27
2018-09-26T07:35:59.107Z,102877.95
2018-09-26T07:38:28.021Z,102840.59
2018-09-26T07:40:58.160Z,102873.02
2018-09-26T07:43:27.031Z,102871.72
2018-09-26T07:45:55.969Z,102856.57
2018-09-26T07:48:26.170Z,102881.81
2018-09-26T07:50:56.342Z,102894.08
2018-09-26T07:53:25.303Z,102898.69
2018-09-26T07:55:54.260Z,102876.07
2018-09-26T07:58:23.210Z,102828.70
2018-09-26T08:00:52.109Z,102904.80
2018-09-26T08:03:20.970Z,102878.56
2018-09-26T08:05:49.870Z,102839.08
2018-09-26T08:08:18.779Z,102819.28
2018-09-26T08:10:49.107Z,102823.34
2018-09-26T08:13:18.040Z,102840.41
2018-09-26T08:15:46.917Z,102839.07
2018-09-26T08:18:15.968Z,102801.59
2018-09-26T08:20:44.742Z,102844.73
2018-09-26T08:23:13.808Z,102842.88
2018-09-26T08:25:44.101Z,102890.77
2018-09-26T08:28:13.041Z,102831.39
2018-09-26T08:30:41.921Z,102811.28
2018-09-26T08:33:12.202Z,102875.78
2018-09-26T08:35:41.134Z,102862.61
2018-09-26T08:38:10.123Z,102842.39
2018-09-26T08:40:40.327Z,102849.47
2018-09-26T08:43:09.460Z,102858.59
2018-09-26T08:45:38.612Z,102760.62
2018-09-26T08:48:07.598Z,102772.81
2018-09-26T08:50:36.559Z,102846.20
2018-09-26T08:53:05.500Z,102828.11
2018-09-26T08:55:35.699Z,102815.73
2018-09-26T08:58:04.652Z,102847.78
2018-09-26T09:00:35.905Z,102833.39
2018-09-26T09:03:06.709Z,102779.58
2018-09-26T09:05:35.652Z,102836.22
2018-09-26T09:08:04.668Z,102820.92
2018-09-26T09:10:33.682Z,102823.41
2018-09-26T09:13:02.605Z,102783.16
2018-09-26T09:15:31.571Z,102838.96
2018-09-26T09:18:00.512Z,102821.70
2018-09-26T09:20:29.409Z,102768.08
2018-09-26T09:22:58.330Z,102798.34
2018-09-26T09:25:27.200Z,102816.65
2018-09-26T09:27:56.088Z,102819.77
2018-09-26T09:30:25.039Z,102782.08
2018-09-26T09:32:53.919Z,102797.94
2018-09-26T09:35:22.875Z,102831.98
2018-09-26T09:37:51.998Z,102784.36
2018-09-26T09:40:21.041Z,102803.28
2018-09-26T09:42:49.892Z,102797.47
2018-09-26T09:45:18.759Z,102800.84
2018-09-26T09:47:47.623Z,102856.58
2018-09-26T09:50:16.485Z,102792.06
2018-09-26T09:52:46.807Z,102807.40
2018-09-26T09:55:15.684Z,102779.66
2018-09-26T09:57:44.570Z,102791.61
2018-09-26T10:00:13.471Z,102791.58
2018-09-26T10:02:42.373Z,102766.33
2018-09-26T10:05:11.319Z,102745.80
2018-09-26T10:07:42.679Z,102836.83
2018-09-26T10:10:11.579Z,102795.02
2018-09-26T10:12:40.583Z,102791.99
2018-09-26T10:15:09.507Z,102787.61
2018-09-26T10:17:38.553Z,102778.98
2018-09-26T10:20:07.413Z,102803.55
2018-09-26T10:22:36.256Z,102740.74
2018-09-26T10:25:05.194Z,102777.22
2018-09-26T10:27:35.666Z,102814.09
2018-09-26T10:30:04.812Z,102770.82
2018-09-26T10:32:33.704Z,102738.56
2018-09-26T10:35:03.946Z,102752.72
2018-09-26T10:37:32.676Z,102818.47
2018-09-26T10:40:01.496Z,102737.96
2018-09-26T10:42:31.655Z,102785.80
2018-09-26T10:45:00.423Z,102776.02
2018-09-26T10:47:29.292Z,102772.94
2018-09-26T10:49:59.595Z,102771.11
2018-09-26T10:52:28.511Z,102770.31
2018-09-26T10:54:57.385Z,102793.00
2018-09-26T10:57:27.601Z,102759.23
2018-09-26T10:59:56.528Z,102778.19
2018-09-26T11:02:25.369Z,102719.71
2018-09-26T11:04:55.548Z,102762.94
2018-09-26T11:07:24.656Z,102739.20
2018-09-26T11:09:54.011Z,102741.46
2018-09-26T11:12:22.912Z,102721.11
2018-09-26T11:14:51.765Z,102743.85
2018-09-26T11:17:20.801Z,102693.53
2018-09-26T11:19:50.955Z,102732.29
2018-09-26T11:22:19.881Z,102740.19
2018-09-26T11:24:48.805Z,102788.73
2018-09-26T11:27:18.978Z,102713.45
2018-09-26T11:29:47.851Z,102719.72
2018-09-26T11:32:16.677Z,102708.71
2018-09-26T11:34:45.557Z,102669.16
2018-09-26T11:37:14.343Z,102733.14
2018-09-26T11:39:43.241Z,102748.07
2018-09-26T11:42:12.132Z,102702.88
2018-09-26T11:44:41.090Z,102713.95
2018-09-26T11:47:09.856Z,102707.52
2018-09-26T11:49:38.716Z,102661.87
2018-09-26T11:52:07.722Z,102759.95
2018-09-26T11:54:36.543Z,102725.91
2018-09-26T11:57:05.424Z,102776.81
2018-09-26T11:59:34.378Z,102753.02
2018-09-26T12:02:03.280Z,102721.65
2018-09-26T12:04:32.081Z,102737.98
2018-09-26T12:07:00.902Z,102716.80
2018-09-26T12:09:29.765Z,102633.38
2018-09-26T12:11:58.648Z,102714.34
2018-09-26T12:14:27.528Z,102713.91
2018-09-26T12:16:56.379Z,102751.20
2018-09-26T12:19:25.279Z,102786.74
2018-09-26T12:21:54.151Z,102686.63
2018-09-26T12:24:23.123Z,102718.21
2018-09-26T12:26:53.568Z,102728.13
2018-09-26T12:29:22.441Z,102721.66
2018-09-26T12:31:51.281Z,102702.20
2018-09-26T12:34:20.340Z,102665.38
2018-09-26T12:36:49.256Z,102724.95
2018-09-26T12:39:18.310Z,102608.49
2018-09-26T12:41:47.232Z,102696.88
2018-09-26T12:44:16.129Z,102738.83
2018-09-26T12:46:45.024Z,102706.77
2018-09-26T12:49:15.119Z,102725.22
2018-09-26T12:51:43.986Z,102730.59
2018-09-26T12:54:12.847Z,102703.78
2018-09-26T12:56:41.750Z,102697.33
2018-09-26T12:59:12.063Z,102729.64
2018-09-26T13:01:40.966Z,102727.44
2018-09-26T13:04:10.156Z,102613.00
2018-09-26T13:06:39.007Z,102739.16
2018-09-26T13:09:08.311Z,102699.62
2018-09-26T13:11:37.241Z,102738.67
2018-09-26T13:14:06.171Z,102739.75
2018-09-26T13:16:35.064Z,102717.74
2018-09-26T13:19:04.026Z,102726.36
2018-09-26T13:21:32.931Z,102723.03
2018-09-26T13:24:01.837Z,102732.52
2018-09-26T13:26:30.728Z,102724.87
2018-09-26T13:29:00.996Z,102712.60
2018-09-26T13:31:30.024Z,102711.48
2018-09-26T13:33:58.882Z,102745.58
2018-09-26T13:36:27.838Z,102702.62
2018-09-26T13:38:56.937Z,102720.57
2018-09-26T13:41:25.945Z,102686.29
2018-09-26T13:43:55.227Z,102705.56
2018-09-26T13:46:24.655Z,102715.39
2018-09-26T13:48:53.508Z,102694.06
2018-09-26T13:51:22.386Z,102683.08
2018-09-26T13:53:52.602Z,102692.00
2018-09-26T13:56:21.593Z,102675.96
2018-09-26T13:58:50.506Z,102651.76
2018-09-26T14:01:19.552Z,102701.16
2018-09-26T14:03:48.471Z,102697.28
2018-09-26T14:06:17.419Z,102714.87
2018-09-26T14:08:46.388Z,102692.70
2018-09-26T14:11:15.278Z,102730.16
2018-09-26T14:13:44.222Z,102671.94
2018-09-26T14:16:13.188Z,102683.75
2018-09-26T14:18:42.085Z,102645.97
2018-09-26T14:21:11.081Z,102693.64
2018-09-26T14:23:40.121Z,102686.92
2018-09-26T14:26:09.001Z,102659.88
2018-09-26T14:28:37.934Z,102686.94
2018-09-26T14:31:06.949Z,102654.84
2018-09-26T14:33:35.983Z,102674.03
2018-09-26T14:36:04.849Z,102693.56
2018-09-26T14:38:33.748Z,102686.84
2018-09-26T14:41:02.656Z,102667.32
2018-09-26T14:43:32.828Z,102679.12
2018-09-26T14:46:01.862Z,102670.26
2018-09-26T14:48:30.784Z,102659.03
2018-09-26T14:50:59.687Z,102654.27
2018-09-26T14:53:28.680Z,102656.45
2018-09-26T14:55:57.576Z,102668.78
2018-09-26T14:58:26.432Z,102604.45
2018-09-26T15:00:56.838Z,102657.72
2018-09-26T15:03:27.141Z,102648.62
2018-09-26T15:05:56.054Z,102653.54
2018-09-26T15:08:25.186Z,102646.72
2018-09-26T15:10:54.106Z,102702.27
2018-09-26T15:13:22.942Z,102629.20
2018-09-26T15:15:51.840Z,102657.94
2018-09-26T15:18:20.827Z,102703.95
2018-09-26T15:20:49.652Z,102705.14
2018-09-26T15:23:18.600Z,102704.25
2018-09-26T15:25:47.403Z,102700.54
2018-09-26T15:28:16.436Z,102661.41
2018-09-26T15:30:45.261Z,102685.16
2018-09-26T15:33:14.134Z,102698.86
2018-09-26T15:35:43.074Z,102691.54
2018-09-26T15:38:12.029Z,102630.12
2018-09-26T15:40:41.095Z,102713.48
2018-09-26T15:43:11.115Z,102637.13
2018-09-26T15:45:40.012Z,102699.30
2018-09-26T15:48:09.143Z,102698.23
2018-09-26T15:50:39.258Z,102692.72
2018-09-26T15:53:08.297Z,102724.17
2018-09-26T15:55:37.295Z,102728.22
2018-09-26T15:58:06.286Z,102704.05
2018-09-26T16:00:35.227Z,102719.57
2018-09-26T16:03:05.720Z,102682.78
2018-09-26T16:05:34.646Z,102722.19
2018-09-26T16:08:03.544Z,102737.81
2018-09-26T16:10:32.456Z,102720.58
2018-09-26T16:13:01.328Z,102729.02
2018-09-26T16:15:30.265Z,102717.91
2018-09-26T16:17:59.193Z,102719.27
2018-09-26T16:20:28.085Z,102739.16
2018-09-26T16:22:57.063Z,102737.14
2018-09-26T16:25:25.979Z,102726.50
2018-09-26T16:27:54.846Z,102725.08
2018-09-26T16:30:23.886Z,102728.59
2018-09-26T16:32:52.694Z,102722.76
2018-09-26T16:35:21.786Z,102712.45
2018-09-26T16:37:52.532Z,102714.35
2018-09-26T16:40:21.643Z,102734.93
2018-09-26T16:42:50.540Z,102737.99
2018-09-26T16:45:20.819Z,102712.52
2018-09-26T16:47:49.788Z,102747.30
2018-09-26T16:50:18.730Z,102750.37
2018-09-26T16:52:50.340Z,102771.74
2018-09-26T16:55:19.276Z,102741.72
2018-09-26T16:57:48.151Z,102760.23
2018-09-26T17:00:17.117Z,102758.42
2018-09-26T17:02:46.040Z,102767.93
2018-09-26T17:05:14.932Z,102750.86
2018-09-26T17:07:43.858Z,102764.09
2018-09-26T17:10:12.754Z,102762.39
2018-09-26T17:12:41.725Z,102777.61
2018-09-26T17:15:10.745Z,102773.74
2018-09-26T17:17:39.595Z,102763.62
2018-09-26T17:20:08.509Z,102771.91
2018-09-26T17:22:37.398Z,102761.66
2018-09-26T17:25:06.291Z,102739.34
2018-09-26T17:27:35.147Z,102771.83
2018-09-26T17:30:04.258Z,102776.38
2018-09-26T17:32:33.189Z,102774.70
2018-09-26T17:35:02.156Z,102770.60
2018-09-26T17:37:31.110Z,102757.34
2018-09-26T17:40:00.073Z,102774.47
2018-09-26T17:42:28.927Z,102773.14
2018-09-26T17:44:57.968Z,102780.73
2018-09-26T17:47:28.202Z,102773.72
2018-09-26T17:49:57.140Z,102774.11
2018-09-26T17:52:27.095Z,102783.42
2018-09-26T17:54:55.991Z,102766.76
2018-09-26T17:57:24.951Z,102777.80
2018-09-26T17:59:53.827Z,102774.55
2018-09-26T18:02:22.721Z,102773.98
2018-09-26T18:04:51.607Z,102779.48
2018-09-26T18:07:20.565Z,102779.36
2018-09-26T18:09:50.796Z,102792.55
2018-09-26T18:12:19.822Z,102793.93
2018-09-26T18:14:48.726Z,102799.55
2018-09-26T18:17:17.755Z,102804.84
2018-09-26T18:19:46.708Z,102806.27
2018-09-26T18:22:15.605Z,102792.46
2018-09-26T18:24:44.548Z,102784.07
2018-09-26T18:27:13.483Z,102780.70
2018-09-26T18:29:43.718Z,102800.02
2018-09-26T18:32:12.695Z,102751.87
2018-09-26T18:34:41.787Z,102790.31
2018-09-26T18:37:10.669Z,102782.50
2018-09-26T18:39:39.683Z,102777.90
2018-09-26T18:42:08.593Z,102801.89
2018-09-26T18:44:37.504Z,102805.50
2018-09-26T18:47:06.432Z,102791.63
2018-09-26T18:49:35.364Z,102810.45
2018-09-26T18:52:04.341Z,102786.73
2018-09-26T18:54:33.338Z,102801.16
2018-09-26T18:57:02.246Z,102779.33
2018-09-26T18:59:31.167Z,102791.05
2018-09-26T19:02:01.344Z,102795.87
2018-09-26T19:04:30.301Z,102781.34
2018-09-26T19:06:59.208Z,102778.14
2018-09-26T19:09:29.348Z,102786.61
2018-09-26T19:11:58.243Z,102801.73
2018-09-26T19:14:27.199Z,102789.22
2018-09-26T19:16:57.327Z,102781.96
2018-09-26T19:19:26.221Z,102752.08
2018-09-26T19:21:55.128Z,102764.71
2018-09-26T19:24:24.154Z,102754.23
2018-09-26T19:26:53.163Z,102802.95
2018-09-26T19:29:22.098Z,102771.81
2018-09-26T19:31:51.100Z,102769.35
2018-09-26T19:34:20.021Z,102784.55
2018-09-26T19:36:48.930Z,102785.92
2018-09-26T19:39:17.890Z,102774.91
2018-09-26T19:41:46.767Z,102734.81
2018-09-26T19:44:15.615Z,102760.81
2018-09-26T19:46:44.544Z,102756.09
2018-09-26T19:49:13.427Z,102743.40
2018-09-26T19:51:42.320Z,102714.01
2018-09-26T19:54:11.250Z,102754.31
2018-09-26T19:56:40.090Z,102760.00
2018-09-26T19:59:09.032Z,102759.21
2018-09-26T20:01:38.149Z,102771.05
2018-09-26T20:04:07.075Z,102761.33
2018-09-26T20:06:36.048Z,102763.18
2018-09-26T20:09:07.786Z,102763.97
2018-09-26T20:11:36.741Z,102763.66
2018-09-26T20:14:05.843Z,102776.31
2018-09-26T20:16:34.914Z,102763.45
2018-09-26T20:19:04.047Z,102765.20
2018-09-26T20:21:32.917Z,102759.25
2018-09-26T20:24:01.873Z,102755.89
2018-09-26T20:26:30.860Z,102772.14
2018-09-26T20:28:59.982Z,102757.09
2018-09-26T20:31:29.234Z,102727.75
2018-09-26T20:33:58.136Z,102770.94
2018-09-26T20:36:27.080Z,102774.84
2018-09-26T20:38:56.063Z,102770.30
2018-09-26T20:41:25.140Z,102752.85
2018-09-26T20:43:54.093Z,102766.57
2018-09-26T20:46:23.050Z,102767.62
2018-09-26T20:48:52.104Z,102770.20
2018-09-26T20:51:21.084Z,102744.67
2018-09-26T20:53:50.057Z,102768.17
2018-09-26T20:56:18.978Z,102752.37
2018-09-26T20:58:47.946Z,102765.84
2018-09-26T21:01:16.939Z,102744.58
2018-09-26T21:03:45.854Z,102781.20
2018-09-26T21:06:14.796Z,102773.69
2018-09-26T21:08:43.772Z,102779.30
2018-09-26T21:11:12.784Z,102755.04
2018-09-26T21:13:41.716Z,102777.86
2018-09-26T21:16:10.731Z,102759.11
2018-09-26T21:18:39.711Z,102756.84
2018-09-26T21:21:08.718Z,102725.34
2018-09-26T21:23:37.642Z,102714.09
2018-09-26T21:26:06.574Z,102780.80
2018-09-26T21:28:35.447Z,102794.62
2018-09-26T21:31:04.368Z,102752.39
2018-09-26T21:33:33.315Z,102741.31
2018-09-26T21:36:02.176Z,102745.80
2018-09-26T21:38:31.079Z,102772.21
2018-09-26T21:40:59.936Z,102793.49
2018-09-26T21:43:28.828Z,102775.91
2018-09-26T21:45:57.777Z,102748.70
2018-09-26T21:48:26.662Z,102776.90
2018-09-26T21:50:55.544Z,102755.20
2018-09-26T21:53:24.692Z,102780.39
2018-09-26T21:55:53.576Z,102706.73
2018-09-26T21:58:22.445Z,102749.84
2018-09-26T22:00:56.439Z,102750.28
2018-09-26T22:03:25.282Z,102754.22
2018-09-26T22:05:55.387Z,102715.09
2018-09-26T22:08:24.251Z,102732.44
2018-09-26T22:10:53.120Z,102717.77
2018-09-26T22:13:22.641Z,102751.52
2018-09-26T22:15:51.699Z,102734.93
2018-09-26T22:18:20.554Z,102750.53
2018-09-26T22:20:49.503Z,102720.59
2018-09-26T22:23:18.399Z,102730.45
2018-09-26T22:25:47.262Z,102737.09
2018-09-26T22:28:16.204Z,102731.88
2018-09-26T22:30:45.068Z,102715.88
2018-09-26T22:33:13.907Z,102749.27
2018-09-26T22:35:42.919Z,102737.12
2018-09-26T22:38:11.787Z,102729.91
2018-09-26T22:40:40.655Z,102727.52
2018-09-26T22:43:09.619Z,102747.04
2018-09-26T22:45:38.562Z,102769.13
2018-09-26T22:48:07.480Z,102722.34
2018-09-26T22:50:36.423Z,102739.81
2018-09-26T22:53:05.296Z,102726.55
2018-09-26T22:55:34.122Z,102755.25
2018-09-26T22:58:03.123Z,102716.13
2018-09-26T23:00:31.987Z,102753.98
2018-09-26T23:03:00.888Z,102738.59
2018-09-26T23:05:30.397Z,102696.83
2018-09-26T23:07:59.355Z,102740.55
2018-09-26T23:10:28.246Z,102729.92
2018-09-26T23:12:59.600Z,102674.09
2018-09-26T23:15:28.498Z,102698.38
2018-09-26T23:17:57.345Z,102689.42
2018-09-26T23:20:26.223Z,102727.06
2018-09-26T23:22:55.135Z,102719.15
2018-09-26T23:25:23.997Z,102729.19
2018-09-26T23:27:52.963Z,102725.39
2018-09-26T23:30:21.873Z,102710.06
2018-09-26T23:32:50.847Z,102688.22
2018-09-26T23:35:19.779Z,102714.17
2018-09-26T23:37:48.675Z,102664.76
2018-09-26T23:40:17.585Z,102704.55
2018-09-26T23:42:46.499Z,102698.38
2018-09-26T23:45:15.452Z,102693.19
2018-09-26T23:47:44.320Z,102690.18
2018-09-26T23:50:13.336Z,102723.99
2018-09-26T23:52:42.169Z,102694.93
2018-09-26T23:55:11.030Z,102685.05
2018-09-26T23:57:39.890Z,102654.82
